sensor_id;sensor_type;location;lat;lon;timestamp;P1;durP1;ratioP1;P2;durP2;ratioP2
41921;SDS011;27609;51.002;5.354;2023-11-19T00:02:18;6.28;;;3.92;;
41921;SDS011;27609;51.002;5.354;2023-11-19T00:04:44;4.22;;;3.65;;
41921;SDS011;27609;51.002;5.354;2023-11-19T00:07:10;10.00;;;4.88;;
41921;SDS011;27609;51.002;5.354;2023-11-19T00:09:38;6.60;;;3.95;;
41921;SDS011;27609;51.002;5.354;2023-11-19T00:12:04;6.70;;;3.58;;
41921;SDS011;27609;51.002;5.354;2023-11-19T00:14:30;5.28;;;3.72;;
41921;SDS011;27609;51.002;5.354;2023-11-19T00:16:56;4.93;;;3.92;;
41921;SDS011;27609;51.002;5.354;2023-11-19T00:19:22;3.83;;;2.83;;
41921;SDS011;27609;51.002;5.354;2023-11-19T00:21:47;8.75;;;3.70;;
41921;SDS011;27609;51.002;5.354;2023-11-19T00:24:13;5.00;;;3.80;;
41921;SDS011;27609;51.002;5.354;2023-11-19T00:26:41;5.00;;;3.47;;
41921;SDS011;27609;51.002;5.354;2023-11-19T00:29:07;5.68;;;3.63;;
41921;SDS011;27609;51.002;5.354;2023-11-19T00:31:33;5.07;;;3.33;;
41921;SDS011;27609;51.002;5.354;2023-11-19T00:33:59;5.38;;;3.60;;
41921;SDS011;27609;51.002;5.354;2023-11-19T00:36:26;7.82;;;3.15;;
41921;SDS011;27609;51.002;5.354;2023-11-19T00:38:53;7.13;;;3.70;;
41921;SDS011;27609;51.002;5.354;2023-11-19T00:41:19;6.13;;;3.80;;
41921;SDS011;27609;51.002;5.354;2023-11-19T00:43:45;9.23;;;4.43;;
41921;SDS011;27609;51.002;5.354;2023-11-19T00:46:11;4.65;;;3.70;;
41921;SDS011;27609;51.002;5.354;2023-11-19T00:48:37;6.10;;;4.43;;
41921;SDS011;27609;51.002;5.354;2023-11-19T00:51:03;7.15;;;4.80;;
41921;SDS011;27609;51.002;5.354;2023-11-19T00:53:29;8.63;;;4.38;;
41921;SDS011;27609;51.002;5.354;2023-11-19T00:55:55;7.13;;;5.38;;
41921;SDS011;27609;51.002;5.354;2023-11-19T00:58:21;11.23;;;5.68;;
41921;SDS011;27609;51.002;5.354;2023-11-19T01:00:47;6.65;;;4.45;;
41921;SDS011;27609;51.002;5.354;2023-11-19T01:03:12;7.97;;;4.15;;
41921;SDS011;27609;51.002;5.354;2023-11-19T01:05:39;13.65;;;5.03;;
41921;SDS011;27609;51.002;5.354;2023-11-19T01:08:05;11.20;;;4.45;;
41921;SDS011;27609;51.002;5.354;2023-11-19T01:10:31;8.63;;;4.50;;
41921;SDS011;27609;51.002;5.354;2023-11-19T01:12:57;9.82;;;4.80;;
41921;SDS011;27609;51.002;5.354;2023-11-19T01:15:22;9.00;;;4.55;;
41921;SDS011;27609;51.002;5.354;2023-11-19T01:17:48;10.20;;;4.65;;
41921;SDS011;27609;51.002;5.354;2023-11-19T01:20:14;11.68;;;4.25;;
41921;SDS011;27609;51.002;5.354;2023-11-19T01:22:40;11.10;;;5.05;;
41921;SDS011;27609;51.002;5.354;2023-11-19T01:25:06;9.60;;;4.50;;
41921;SDS011;27609;51.002;5.354;2023-11-19T01:27:32;17.92;;;4.30;;
41921;SDS011;27609;51.002;5.354;2023-11-19T01:30:02;9.65;;;3.45;;
41921;SDS011;27609;51.002;5.354;2023-11-19T01:32:46;9.68;;;3.42;;
41921;SDS011;27609;51.002;5.354;2023-11-19T01:35:11;11.98;;;4.93;;
41921;SDS011;27609;51.002;5.354;2023-11-19T01:37:37;12.07;;;4.47;;
41921;SDS011;27609;51.002;5.354;2023-11-19T01:40:03;11.35;;;3.60;;
41921;SDS011;27609;51.002;5.354;2023-11-19T01:42:30;12.07;;;3.92;;
41921;SDS011;27609;51.002;5.354;2023-11-19T01:45:00;12.63;;;3.80;;
41921;SDS011;27609;51.002;5.354;2023-11-19T01:47:30;14.13;;;3.50;;
41921;SDS011;27609;51.002;5.354;2023-11-19T01:49:56;13.47;;;3.50;;
41921;SDS011;27609;51.002;5.354;2023-11-19T01:52:22;11.57;;;3.80;;
41921;SDS011;27609;51.002;5.354;2023-11-19T01:54:50;11.50;;;3.08;;
41921;SDS011;27609;51.002;5.354;2023-11-19T01:57:18;11.40;;;3.20;;
41921;SDS011;27609;51.002;5.354;2023-11-19T01:59:46;15.07;;;3.22;;
41921;SDS011;27609;51.002;5.354;2023-11-19T02:02:13;23.38;;;4.65;;
41921;SDS011;27609;51.002;5.354;2023-11-19T02:04:38;8.98;;;2.65;;
41921;SDS011;27609;51.002;5.354;2023-11-19T02:07:05;11.77;;;3.03;;
41921;SDS011;27609;51.002;5.354;2023-11-19T02:09:31;13.82;;;2.95;;
41921;SDS011;27609;51.002;5.354;2023-11-19T02:11:57;13.75;;;2.58;;
41921;SDS011;27609;51.002;5.354;2023-11-19T02:14:23;10.75;;;2.42;;
41921;SDS011;27609;51.002;5.354;2023-11-19T02:16:51;16.98;;;3.50;;
41921;SDS011;27609;51.002;5.354;2023-11-19T02:19:20;10.65;;;2.60;;
41921;SDS011;27609;51.002;5.354;2023-11-19T02:21:46;20.80;;;3.15;;
41921;SDS011;27609;51.002;5.354;2023-11-19T02:24:11;17.52;;;3.13;;
41921;SDS011;27609;51.002;5.354;2023-11-19T02:26:47;16.83;;;2.50;;
41921;SDS011;27609;51.002;5.354;2023-11-19T02:29:26;16.40;;;3.47;;
41921;SDS011;27609;51.002;5.354;2023-11-19T02:31:52;18.67;;;2.55;;
41921;SDS011;27609;51.002;5.354;2023-11-19T02:34:19;20.52;;;3.33;;
41921;SDS011;27609;51.002;5.354;2023-11-19T02:36:48;19.02;;;3.80;;
41921;SDS011;27609;51.002;5.354;2023-11-19T02:39:14;16.35;;;2.88;;
41921;SDS011;27609;51.002;5.354;2023-11-19T02:41:46;19.38;;;2.67;;
41921;SDS011;27609;51.002;5.354;2023-11-19T02:44:12;17.20;;;3.28;;
41921;SDS011;27609;51.002;5.354;2023-11-19T02:46:38;15.30;;;2.80;;
41921;SDS011;27609;51.002;5.354;2023-11-19T02:49:07;16.45;;;2.88;;
41921;SDS011;27609;51.002;5.354;2023-11-19T02:51:32;22.85;;;4.10;;
41921;SDS011;27609;51.002;5.354;2023-11-19T02:53:59;16.13;;;3.50;;
41921;SDS011;27609;51.002;5.354;2023-11-19T02:56:25;16.58;;;3.58;;
41921;SDS011;27609;51.002;5.354;2023-11-19T02:58:51;18.00;;;3.88;;
41921;SDS011;27609;51.002;5.354;2023-11-19T03:01:24;20.33;;;3.33;;
41921;SDS011;27609;51.002;5.354;2023-11-19T03:04:02;18.05;;;3.40;;
41921;SDS011;27609;51.002;5.354;2023-11-19T03:06:28;16.52;;;3.15;;
41921;SDS011;27609;51.002;5.354;2023-11-19T03:08:54;20.55;;;4.15;;
41921;SDS011;27609;51.002;5.354;2023-11-19T03:11:20;18.80;;;4.13;;
41921;SDS011;27609;51.002;5.354;2023-11-19T03:13:46;30.10;;;3.25;;
41921;SDS011;27609;51.002;5.354;2023-11-19T03:16:12;23.25;;;4.57;;
41921;SDS011;27609;51.002;5.354;2023-11-19T03:18:38;20.83;;;4.18;;
41921;SDS011;27609;51.002;5.354;2023-11-19T03:21:07;17.05;;;2.92;;
41921;SDS011;27609;51.002;5.354;2023-11-19T03:23:33;16.85;;;3.63;;
41921;SDS011;27609;51.002;5.354;2023-11-19T03:26:00;20.40;;;3.20;;
41921;SDS011;27609;51.002;5.354;2023-11-19T03:28:28;28.15;;;4.85;;
41921;SDS011;27609;51.002;5.354;2023-11-19T03:30:54;25.45;;;3.47;;
41921;SDS011;27609;51.002;5.354;2023-11-19T03:33:20;23.63;;;3.25;;
41921;SDS011;27609;51.002;5.354;2023-11-19T03:35:46;16.65;;;3.53;;
41921;SDS011;27609;51.002;5.354;2023-11-19T03:38:11;29.30;;;3.45;;
41921;SDS011;27609;51.002;5.354;2023-11-19T03:40:38;26.02;;;4.05;;
41921;SDS011;27609;51.002;5.354;2023-11-19T03:43:04;17.67;;;3.95;;
41921;SDS011;27609;51.002;5.354;2023-11-19T03:45:30;25.27;;;3.58;;
41921;SDS011;27609;51.002;5.354;2023-11-19T03:47:55;24.50;;;3.67;;
41921;SDS011;27609;51.002;5.354;2023-11-19T03:50:21;24.60;;;4.53;;
41921;SDS011;27609;51.002;5.354;2023-11-19T03:52:47;28.92;;;3.47;;
41921;SDS011;27609;51.002;5.354;2023-11-19T03:55:13;21.60;;;3.85;;
41921;SDS011;27609;51.002;5.354;2023-11-19T03:57:39;24.10;;;3.60;;
41921;SDS011;27609;51.002;5.354;2023-11-19T04:00:04;17.35;;;2.95;;
41921;SDS011;27609;51.002;5.354;2023-11-19T04:02:38;19.92;;;3.80;;
41921;SDS011;27609;51.002;5.354;2023-11-19T04:05:04;22.52;;;3.30;;
41921;SDS011;27609;51.002;5.354;2023-11-19T04:07:31;23.60;;;3.08;;
41921;SDS011;27609;51.002;5.354;2023-11-19T04:09:57;24.95;;;3.95;;
41921;SDS011;27609;51.002;5.354;2023-11-19T04:12:23;17.98;;;3.70;;
41921;SDS011;27609;51.002;5.354;2023-11-19T04:14:49;24.35;;;3.65;;
41921;SDS011;27609;51.002;5.354;2023-11-19T04:17:15;21.48;;;3.60;;
41921;SDS011;27609;51.002;5.354;2023-11-19T04:19:40;27.23;;;3.15;;
41921;SDS011;27609;51.002;5.354;2023-11-19T04:22:09;26.17;;;3.35;;
41921;SDS011;27609;51.002;5.354;2023-11-19T04:24:35;20.23;;;3.75;;
41921;SDS011;27609;51.002;5.354;2023-11-19T04:27:01;19.88;;;3.25;;
41921;SDS011;27609;51.002;5.354;2023-11-19T04:29:28;16.83;;;3.85;;
41921;SDS011;27609;51.002;5.354;2023-11-19T04:31:56;9.60;;;3.53;;
41921;SDS011;27609;51.002;5.354;2023-11-19T04:34:21;26.45;;;4.60;;
41921;SDS011;27609;51.002;5.354;2023-11-19T04:36:47;23.38;;;3.72;;
41921;SDS011;27609;51.002;5.354;2023-11-19T04:39:12;22.95;;;3.70;;
41921;SDS011;27609;51.002;5.354;2023-11-19T04:41:46;19.55;;;3.58;;
41921;SDS011;27609;51.002;5.354;2023-11-19T04:44:13;23.45;;;3.42;;
41921;SDS011;27609;51.002;5.354;2023-11-19T04:46:40;26.13;;;3.17;;
41921;SDS011;27609;51.002;5.354;2023-11-19T04:49:08;21.55;;;2.70;;
41921;SDS011;27609;51.002;5.354;2023-11-19T04:51:42;15.25;;;3.05;;
41921;SDS011;27609;51.002;5.354;2023-11-19T04:54:08;16.48;;;3.70;;
41921;SDS011;27609;51.002;5.354;2023-11-19T04:56:35;19.95;;;3.85;;
41921;SDS011;27609;51.002;5.354;2023-11-19T04:59:04;17.60;;;3.07;;
41921;SDS011;27609;51.002;5.354;2023-11-19T05:01:34;27.92;;;3.95;;
41921;SDS011;27609;51.002;5.354;2023-11-19T05:04:00;21.15;;;4.15;;
41921;SDS011;27609;51.002;5.354;2023-11-19T05:06:30;20.85;;;3.83;;
41921;SDS011;27609;51.002;5.354;2023-11-19T05:08:56;19.75;;;2.85;;
41921;SDS011;27609;51.002;5.354;2023-11-19T05:11:26;30.45;;;3.95;;
41921;SDS011;27609;51.002;5.354;2023-11-19T05:13:53;23.05;;;4.78;;
41921;SDS011;27609;51.002;5.354;2023-11-19T05:16:19;27.17;;;3.63;;
41921;SDS011;27609;51.002;5.354;2023-11-19T05:18:45;23.20;;;3.95;;
41921;SDS011;27609;51.002;5.354;2023-11-19T05:21:11;19.00;;;2.95;;
41921;SDS011;27609;51.002;5.354;2023-11-19T05:23:37;27.15;;;3.75;;
41921;SDS011;27609;51.002;5.354;2023-11-19T05:26:04;24.90;;;4.97;;
41921;SDS011;27609;51.002;5.354;2023-11-19T05:28:30;35.45;;;4.40;;
41921;SDS011;27609;51.002;5.354;2023-11-19T05:30:56;26.10;;;3.05;;
41921;SDS011;27609;51.002;5.354;2023-11-19T05:33:22;15.13;;;3.72;;
41921;SDS011;27609;51.002;5.354;2023-11-19T05:35:48;26.75;;;3.70;;
41921;SDS011;27609;51.002;5.354;2023-11-19T05:38:13;34.55;;;4.38;;
41921;SDS011;27609;51.002;5.354;2023-11-19T05:40:39;26.60;;;4.90;;
41921;SDS011;27609;51.002;5.354;2023-11-19T05:43:06;24.48;;;4.15;;
41921;SDS011;27609;51.002;5.354;2023-11-19T05:45:31;24.38;;;4.13;;
41921;SDS011;27609;51.002;5.354;2023-11-19T05:47:57;32.58;;;5.43;;
41921;SDS011;27609;51.002;5.354;2023-11-19T05:50:23;30.77;;;4.03;;
41921;SDS011;27609;51.002;5.354;2023-11-19T05:52:49;29.02;;;3.55;;
41921;SDS011;27609;51.002;5.354;2023-11-19T05:55:15;22.35;;;3.47;;
41921;SDS011;27609;51.002;5.354;2023-11-19T05:57:41;29.70;;;3.88;;
41921;SDS011;27609;51.002;5.354;2023-11-19T06:00:07;25.50;;;3.25;;
41921;SDS011;27609;51.002;5.354;2023-11-19T06:02:33;26.20;;;3.92;;
41921;SDS011;27609;51.002;5.354;2023-11-19T06:04:59;25.35;;;3.95;;
41921;SDS011;27609;51.002;5.354;2023-11-19T06:07:26;27.25;;;4.00;;
41921;SDS011;27609;51.002;5.354;2023-11-19T06:09:52;36.38;;;4.47;;
41921;SDS011;27609;51.002;5.354;2023-11-19T06:12:18;26.58;;;4.50;;
41921;SDS011;27609;51.002;5.354;2023-11-19T06:14:43;23.90;;;3.88;;
41921;SDS011;27609;51.002;5.354;2023-11-19T06:17:09;20.83;;;3.88;;
41921;SDS011;27609;51.002;5.354;2023-11-19T06:19:36;31.63;;;4.55;;
41921;SDS011;27609;51.002;5.354;2023-11-19T06:22:03;29.45;;;3.97;;
41921;SDS011;27609;51.002;5.354;2023-11-19T06:24:28;38.30;;;6.00;;
41921;SDS011;27609;51.002;5.354;2023-11-19T06:26:54;27.65;;;5.00;;
41921;SDS011;27609;51.002;5.354;2023-11-19T06:29:20;32.22;;;4.40;;
41921;SDS011;27609;51.002;5.354;2023-11-19T06:31:46;38.03;;;4.60;;
41921;SDS011;27609;51.002;5.354;2023-11-19T06:34:13;42.55;;;5.93;;
41921;SDS011;27609;51.002;5.354;2023-11-19T06:36:39;20.83;;;3.58;;
41921;SDS011;27609;51.002;5.354;2023-11-19T06:39:05;37.33;;;5.13;;
41921;SDS011;27609;51.002;5.354;2023-11-19T06:41:31;23.85;;;4.35;;
41921;SDS011;27609;51.002;5.354;2023-11-19T06:43:56;28.25;;;3.90;;
41921;SDS011;27609;51.002;5.354;2023-11-19T06:46:22;19.73;;;2.88;;
41921;SDS011;27609;51.002;5.354;2023-11-19T06:48:48;22.05;;;3.15;;
41921;SDS011;27609;51.002;5.354;2023-11-19T06:51:13;38.53;;;4.50;;
41921;SDS011;27609;51.002;5.354;2023-11-19T06:53:39;27.80;;;5.28;;
41921;SDS011;27609;51.002;5.354;2023-11-19T06:56:06;23.38;;;3.42;;
41921;SDS011;27609;51.002;5.354;2023-11-19T06:58:42;28.27;;;3.85;;
41921;SDS011;27609;51.002;5.354;2023-11-19T07:01:08;33.92;;;4.45;;
41921;SDS011;27609;51.002;5.354;2023-11-19T07:03:34;26.55;;;3.92;;
41921;SDS011;27609;51.002;5.354;2023-11-19T07:06:00;24.30;;;4.05;;
41921;SDS011;27609;51.002;5.354;2023-11-19T07:08:26;30.73;;;4.40;;
41921;SDS011;27609;51.002;5.354;2023-11-19T07:10:52;24.17;;;4.30;;
41921;SDS011;27609;51.002;5.354;2023-11-19T07:13:18;23.80;;;3.53;;
41921;SDS011;27609;51.002;5.354;2023-11-19T07:15:44;33.40;;;4.95;;
41921;SDS011;27609;51.002;5.354;2023-11-19T07:18:10;22.83;;;4.40;;
41921;SDS011;27609;51.002;5.354;2023-11-19T07:20:36;26.58;;;3.67;;
41921;SDS011;27609;51.002;5.354;2023-11-19T07:23:03;38.33;;;4.70;;
41921;SDS011;27609;51.002;5.354;2023-11-19T07:25:29;28.55;;;4.88;;
41921;SDS011;27609;51.002;5.354;2023-11-19T07:27:54;32.72;;;4.65;;
41921;SDS011;27609;51.002;5.354;2023-11-19T07:30:21;21.52;;;3.90;;
41921;SDS011;27609;51.002;5.354;2023-11-19T07:32:47;25.15;;;4.07;;
41921;SDS011;27609;51.002;5.354;2023-11-19T07:35:13;24.23;;;4.07;;
41921;SDS011;27609;51.002;5.354;2023-11-19T07:37:40;21.20;;;4.10;;
41921;SDS011;27609;51.002;5.354;2023-11-19T07:40:07;21.95;;;3.10;;
41921;SDS011;27609;51.002;5.354;2023-11-19T07:42:33;25.77;;;3.40;;
41921;SDS011;27609;51.002;5.354;2023-11-19T07:44:59;22.27;;;3.42;;
41921;SDS011;27609;51.002;5.354;2023-11-19T07:47:25;24.60;;;3.38;;
41921;SDS011;27609;51.002;5.354;2023-11-19T07:49:50;29.35;;;4.85;;
41921;SDS011;27609;51.002;5.354;2023-11-19T07:52:16;20.58;;;4.15;;
41921;SDS011;27609;51.002;5.354;2023-11-19T07:54:41;23.50;;;4.13;;
41921;SDS011;27609;51.002;5.354;2023-11-19T07:57:07;24.98;;;4.40;;
41921;SDS011;27609;51.002;5.354;2023-11-19T07:59:33;20.52;;;4.15;;
41921;SDS011;27609;51.002;5.354;2023-11-19T08:01:58;21.00;;;3.65;;
41921;SDS011;27609;51.002;5.354;2023-11-19T08:04:24;21.08;;;3.08;;
41921;SDS011;27609;51.002;5.354;2023-11-19T08:06:50;19.17;;;3.83;;
41921;SDS011;27609;51.002;5.354;2023-11-19T08:09:16;20.27;;;3.42;;
41921;SDS011;27609;51.002;5.354;2023-11-19T08:11:42;20.75;;;4.00;;
41921;SDS011;27609;51.002;5.354;2023-11-19T08:14:08;24.63;;;4.93;;
41921;SDS011;27609;51.002;5.354;2023-11-19T08:16:34;24.98;;;4.72;;
41921;SDS011;27609;51.002;5.354;2023-11-19T08:19:01;27.77;;;4.63;;
41921;SDS011;27609;51.002;5.354;2023-11-19T08:21:28;34.88;;;5.35;;
41921;SDS011;27609;51.002;5.354;2023-11-19T08:23:54;20.05;;;3.42;;
41921;SDS011;27609;51.002;5.354;2023-11-19T08:26:19;23.70;;;4.65;;
41921;SDS011;27609;51.002;5.354;2023-11-19T08:28:45;25.60;;;4.00;;
41921;SDS011;27609;51.002;5.354;2023-11-19T08:31:11;25.48;;;4.75;;
41921;SDS011;27609;51.002;5.354;2023-11-19T08:33:36;17.58;;;3.97;;
41921;SDS011;27609;51.002;5.354;2023-11-19T08:36:02;19.77;;;3.55;;
41921;SDS011;27609;51.002;5.354;2023-11-19T08:38:29;24.65;;;4.28;;
41921;SDS011;27609;51.002;5.354;2023-11-19T08:40:54;20.08;;;3.85;;
41921;SDS011;27609;51.002;5.354;2023-11-19T08:43:25;38.90;;;4.47;;
41921;SDS011;27609;51.002;5.354;2023-11-19T08:45:51;23.40;;;5.03;;
41921;SDS011;27609;51.002;5.354;2023-11-19T08:48:17;20.98;;;4.25;;
41921;SDS011;27609;51.002;5.354;2023-11-19T08:50:42;18.48;;;3.13;;
41921;SDS011;27609;51.002;5.354;2023-11-19T08:53:08;16.73;;;3.75;;
41921;SDS011;27609;51.002;5.354;2023-11-19T08:55:34;19.83;;;4.30;;
41921;SDS011;27609;51.002;5.354;2023-11-19T08:58:00;28.10;;;3.90;;
41921;SDS011;27609;51.002;5.354;2023-11-19T09:00:26;20.73;;;3.92;;
41921;SDS011;27609;51.002;5.354;2023-11-19T09:02:51;15.20;;;3.13;;
41921;SDS011;27609;51.002;5.354;2023-11-19T09:05:17;29.00;;;5.05;;
41921;SDS011;27609;51.002;5.354;2023-11-19T09:07:43;20.50;;;3.58;;
41921;SDS011;27609;51.002;5.354;2023-11-19T09:10:09;26.33;;;4.00;;
41921;SDS011;27609;51.002;5.354;2023-11-19T09:12:36;21.48;;;3.17;;
41921;SDS011;27609;51.002;5.354;2023-11-19T09:15:02;18.20;;;3.63;;
41921;SDS011;27609;51.002;5.354;2023-11-19T09:17:28;23.25;;;3.92;;
41921;SDS011;27609;51.002;5.354;2023-11-19T09:19:54;22.63;;;3.13;;
41921;SDS011;27609;51.002;5.354;2023-11-19T09:22:20;17.45;;;3.67;;
41921;SDS011;27609;51.002;5.354;2023-11-19T09:24:46;16.40;;;2.97;;
41921;SDS011;27609;51.002;5.354;2023-11-19T09:27:13;15.43;;;2.72;;
41921;SDS011;27609;51.002;5.354;2023-11-19T09:29:38;22.30;;;3.75;;
41921;SDS011;27609;51.002;5.354;2023-11-19T09:32:04;20.15;;;3.80;;
41921;SDS011;27609;51.002;5.354;2023-11-19T09:34:30;16.00;;;2.60;;
41921;SDS011;27609;51.002;5.354;2023-11-19T09:36:57;20.27;;;3.28;;
41921;SDS011;27609;51.002;5.354;2023-11-19T09:39:22;16.95;;;2.75;;
41921;SDS011;27609;51.002;5.354;2023-11-19T09:41:48;23.00;;;3.55;;
41921;SDS011;27609;51.002;5.354;2023-11-19T09:44:14;24.35;;;4.63;;
41921;SDS011;27609;51.002;5.354;2023-11-19T09:46:43;17.10;;;3.97;;
41921;SDS011;27609;51.002;5.354;2023-11-19T09:49:09;16.85;;;3.75;;
41921;SDS011;27609;51.002;5.354;2023-11-19T09:51:36;17.50;;;3.28;;
41921;SDS011;27609;51.002;5.354;2023-11-19T09:54:02;16.08;;;3.08;;
41921;SDS011;27609;51.002;5.354;2023-11-19T09:56:28;22.05;;;3.88;;
41921;SDS011;27609;51.002;5.354;2023-11-19T09:58:57;16.75;;;3.63;;
41921;SDS011;27609;51.002;5.354;2023-11-19T10:01:24;27.25;;;4.25;;
41921;SDS011;27609;51.002;5.354;2023-11-19T10:03:50;23.75;;;2.83;;
41921;SDS011;27609;51.002;5.354;2023-11-19T10:06:20;16.43;;;3.20;;
41921;SDS011;27609;51.002;5.354;2023-11-19T10:08:46;22.17;;;3.67;;
41921;SDS011;27609;51.002;5.354;2023-11-19T10:11:12;22.40;;;4.97;;
41921;SDS011;27609;51.002;5.354;2023-11-19T10:13:38;20.08;;;3.72;;
41921;SDS011;27609;51.002;5.354;2023-11-19T10:16:06;15.70;;;2.88;;
41921;SDS011;27609;51.002;5.354;2023-11-19T10:18:33;14.30;;;3.20;;
41921;SDS011;27609;51.002;5.354;2023-11-19T10:21:03;17.67;;;3.22;;
41921;SDS011;27609;51.002;5.354;2023-11-19T10:23:30;17.38;;;3.33;;
41921;SDS011;27609;51.002;5.354;2023-11-19T10:26:02;13.93;;;3.08;;
41921;SDS011;27609;51.002;5.354;2023-11-19T10:28:37;17.83;;;3.30;;
41921;SDS011;27609;51.002;5.354;2023-11-19T10:31:05;15.05;;;3.22;;
41921;SDS011;27609;51.002;5.354;2023-11-19T10:33:30;19.45;;;3.85;;
41921;SDS011;27609;51.002;5.354;2023-11-19T10:35:57;16.65;;;2.65;;
41921;SDS011;27609;51.002;5.354;2023-11-19T10:38:23;16.13;;;3.40;;
41921;SDS011;27609;51.002;5.354;2023-11-19T10:40:50;17.98;;;2.90;;
41921;SDS011;27609;51.002;5.354;2023-11-19T10:43:16;17.65;;;3.90;;
41921;SDS011;27609;51.002;5.354;2023-11-19T10:45:43;24.27;;;3.40;;
41921;SDS011;27609;51.002;5.354;2023-11-19T10:48:09;9.02;;;2.35;;
41921;SDS011;27609;51.002;5.354;2023-11-19T10:50:35;21.83;;;3.67;;
41921;SDS011;27609;51.002;5.354;2023-11-19T10:53:02;15.57;;;2.92;;
41921;SDS011;27609;51.002;5.354;2023-11-19T10:55:30;17.48;;;2.90;;
41921;SDS011;27609;51.002;5.354;2023-11-19T10:57:58;17.38;;;3.80;;
41921;SDS011;27609;51.002;5.354;2023-11-19T11:00:25;15.60;;;3.17;;
41921;SDS011;27609;51.002;5.354;2023-11-19T11:03:02;22.55;;;3.05;;
41921;SDS011;27609;51.002;5.354;2023-11-19T11:05:35;18.00;;;3.25;;
41921;SDS011;27609;51.002;5.354;2023-11-19T11:08:03;15.95;;;3.88;;
41921;SDS011;27609;51.002;5.354;2023-11-19T11:10:31;17.45;;;2.85;;
41921;SDS011;27609;51.002;5.354;2023-11-19T11:13:09;10.85;;;2.42;;
41921;SDS011;27609;51.002;5.354;2023-11-19T11:15:37;12.65;;;2.55;;
41921;SDS011;27609;51.002;5.354;2023-11-19T11:18:03;17.45;;;3.53;;
41921;SDS011;27609;51.002;5.354;2023-11-19T11:20:32;24.30;;;2.85;;
41921;SDS011;27609;51.002;5.354;2023-11-19T11:30:50;24.65;;;3.53;;
41921;SDS011;27609;51.002;5.354;2023-11-19T11:36:22;21.13;;;4.45;;
41921;SDS011;27609;51.002;5.354;2023-11-19T11:38:48;17.58;;;3.80;;
41921;SDS011;27609;51.002;5.354;2023-11-19T11:41:21;25.20;;;4.32;;
41921;SDS011;27609;51.002;5.354;2023-11-19T11:47:00;17.90;;;3.63;;
41921;SDS011;27609;51.002;5.354;2023-11-19T11:49:06;28.27;;;4.72;;
41921;SDS011;27609;51.002;5.354;2023-11-19T11:54:10;16.23;;;2.90;;
41921;SDS011;27609;51.002;5.354;2023-11-19T12:02:10;20.20;;;3.45;;
41921;SDS011;27609;51.002;5.354;2023-11-19T12:04:39;20.30;;;3.33;;
41921;SDS011;27609;51.002;5.354;2023-11-19T12:07:06;14.00;;;2.72;;
41921;SDS011;27609;51.002;5.354;2023-11-19T12:09:47;15.20;;;3.47;;
41921;SDS011;27609;51.002;5.354;2023-11-19T12:12:18;25.48;;;5.72;;
41921;SDS011;27609;51.002;5.354;2023-11-19T12:20:02;21.48;;;5.07;;
41921;SDS011;27609;51.002;5.354;2023-11-19T12:22:30;16.98;;;3.83;;
41921;SDS011;27609;51.002;5.354;2023-11-19T12:24:56;14.40;;;3.60;;
41921;SDS011;27609;51.002;5.354;2023-11-19T12:27:23;20.45;;;4.03;;
41921;SDS011;27609;51.002;5.354;2023-11-19T12:29:48;24.85;;;4.07;;
41921;SDS011;27609;51.002;5.354;2023-11-19T12:32:14;20.23;;;3.10;;
41921;SDS011;27609;51.002;5.354;2023-11-19T12:34:40;10.85;;;3.42;;
41921;SDS011;27609;51.002;5.354;2023-11-19T12:37:06;19.55;;;3.30;;
41921;SDS011;27609;51.002;5.354;2023-11-19T12:39:34;21.38;;;3.95;;
41921;SDS011;27609;51.002;5.354;2023-11-19T12:42:00;19.10;;;3.92;;
41921;SDS011;27609;51.002;5.354;2023-11-19T12:44:26;14.55;;;3.20;;
41921;SDS011;27609;51.002;5.354;2023-11-19T12:49:32;16.15;;;3.38;;
41921;SDS011;27609;51.002;5.354;2023-11-19T12:51:58;21.88;;;3.38;;
41921;SDS011;27609;51.002;5.354;2023-11-19T12:54:34;20.40;;;3.30;;
41921;SDS011;27609;51.002;5.354;2023-11-19T12:57:01;31.33;;;4.53;;
41921;SDS011;27609;51.002;5.354;2023-11-19T12:59:27;15.48;;;3.35;;
41921;SDS011;27609;51.002;5.354;2023-11-19T13:01:59;25.23;;;3.78;;
41921;SDS011;27609;51.002;5.354;2023-11-19T13:04:28;19.45;;;3.17;;
41921;SDS011;27609;51.002;5.354;2023-11-19T13:07:01;14.73;;;3.08;;
41921;SDS011;27609;51.002;5.354;2023-11-19T13:09:30;16.80;;;2.85;;
41921;SDS011;27609;51.002;5.354;2023-11-19T13:11:56;18.33;;;3.15;;
41921;SDS011;27609;51.002;5.354;2023-11-19T13:14:22;13.07;;;2.50;;
41921;SDS011;27609;51.002;5.354;2023-11-19T13:16:48;11.15;;;2.22;;
41921;SDS011;27609;51.002;5.354;2023-11-19T13:19:17;11.32;;;2.35;;
41921;SDS011;27609;51.002;5.354;2023-11-19T13:21:44;14.18;;;2.28;;
41921;SDS011;27609;51.002;5.354;2023-11-19T13:24:12;12.98;;;2.85;;
41921;SDS011;27609;51.002;5.354;2023-11-19T13:26:38;19.20;;;3.35;;
41921;SDS011;27609;51.002;5.354;2023-11-19T13:29:04;14.18;;;2.78;;
41921;SDS011;27609;51.002;5.354;2023-11-19T13:31:30;14.75;;;4.70;;
41921;SDS011;27609;51.002;5.354;2023-11-19T13:33:56;12.52;;;4.05;;
41921;SDS011;27609;51.002;5.354;2023-11-19T13:36:23;20.80;;;2.97;;
41921;SDS011;27609;51.002;5.354;2023-11-19T13:38:49;17.33;;;4.38;;
41921;SDS011;27609;51.002;5.354;2023-11-19T13:41:15;20.38;;;3.90;;
41921;SDS011;27609;51.002;5.354;2023-11-19T13:43:40;17.42;;;3.00;;
41921;SDS011;27609;51.002;5.354;2023-11-19T13:46:06;20.17;;;2.80;;
41921;SDS011;27609;51.002;5.354;2023-11-19T13:48:34;17.58;;;2.95;;
41921;SDS011;27609;51.002;5.354;2023-11-19T13:51:00;14.40;;;2.95;;
41921;SDS011;27609;51.002;5.354;2023-11-19T13:53:26;17.27;;;2.88;;
41921;SDS011;27609;51.002;5.354;2023-11-19T13:55:52;15.85;;;3.40;;
41921;SDS011;27609;51.002;5.354;2023-11-19T13:58:18;14.35;;;3.13;;
41921;SDS011;27609;51.002;5.354;2023-11-19T14:00:43;17.63;;;3.40;;
41921;SDS011;27609;51.002;5.354;2023-11-19T14:03:09;16.95;;;3.40;;
41921;SDS011;27609;51.002;5.354;2023-11-19T14:05:38;17.35;;;3.08;;
41921;SDS011;27609;51.002;5.354;2023-11-19T14:08:06;18.13;;;3.13;;
41921;SDS011;27609;51.002;5.354;2023-11-19T14:10:38;18.27;;;3.83;;
41921;SDS011;27609;51.002;5.354;2023-11-19T14:13:05;23.15;;;4.22;;
41921;SDS011;27609;51.002;5.354;2023-11-19T14:15:33;26.50;;;6.57;;
41921;SDS011;27609;51.002;5.354;2023-11-19T14:18:00;19.88;;;3.42;;
41921;SDS011;27609;51.002;5.354;2023-11-19T14:20:25;20.33;;;3.60;;
41921;SDS011;27609;51.002;5.354;2023-11-19T14:22:51;14.40;;;2.80;;
41921;SDS011;27609;51.002;5.354;2023-11-19T14:25:17;15.38;;;3.53;;
41921;SDS011;27609;51.002;5.354;2023-11-19T14:27:44;21.45;;;3.20;;
41921;SDS011;27609;51.002;5.354;2023-11-19T14:30:13;16.95;;;4.68;;
41921;SDS011;27609;51.002;5.354;2023-11-19T14:32:39;19.17;;;2.97;;
41921;SDS011;27609;51.002;5.354;2023-11-19T14:35:10;22.13;;;4.78;;
41921;SDS011;27609;51.002;5.354;2023-11-19T14:37:36;16.10;;;2.67;;
41921;SDS011;27609;51.002;5.354;2023-11-19T14:40:03;16.83;;;2.97;;
41921;SDS011;27609;51.002;5.354;2023-11-19T14:42:30;23.08;;;3.22;;
41921;SDS011;27609;51.002;5.354;2023-11-19T14:44:56;17.13;;;3.45;;
41921;SDS011;27609;51.002;5.354;2023-11-19T14:47:22;16.38;;;3.00;;
41921;SDS011;27609;51.002;5.354;2023-11-19T14:49:48;17.98;;;2.88;;
41921;SDS011;27609;51.002;5.354;2023-11-19T14:52:14;23.02;;;3.65;;
41921;SDS011;27609;51.002;5.354;2023-11-19T14:54:39;18.17;;;3.22;;
41921;SDS011;27609;51.002;5.354;2023-11-19T14:57:05;19.25;;;3.25;;
41921;SDS011;27609;51.002;5.354;2023-11-19T14:59:33;24.73;;;3.75;;
41921;SDS011;27609;51.002;5.354;2023-11-19T15:01:59;17.70;;;3.08;;
41921;SDS011;27609;51.002;5.354;2023-11-19T15:04:28;20.67;;;4.28;;